sensor_id;sensor_type;location;lat;lon;timestamp;temperature;humidity
69006;SHT31;56061;51.748;19.620;2023-02-16T00:00:31;0.38;87.70
69006;SHT31;56061;51.748;19.620;2023-02-16T00:02:58;0.36;87.63
69006;SHT31;56061;51.748;19.620;2023-02-16T00:07:57;0.30;87.62
69006;SHT31;56061;51.748;19.620;2023-02-16T00:10:26;0.28;87.64
69006;SHT31;56061;51.748;19.620;2023-02-16T00:13:01;0.25;87.61
69006;SHT31;56061;51.748;19.620;2023-02-16T00:15:49;0.21;87.59
69006;SHT31;56061;51.748;19.620;2023-02-16T00:18:17;0.19;87.58
69006;SHT31;56061;51.748;19.620;2023-02-16T00:20:48;0.20;87.60
69006;SHT31;56061;51.748;19.620;2023-02-16T00:23:14;0.19;87.58
69006;SHT31;56061;51.748;19.620;2023-02-16T00:25:41;0.19;87.55
69006;SHT31;56061;51.748;19.620;2023-02-16T00:28:15;0.20;87.59
69006;SHT31;56061;51.748;19.620;2023-02-16T00:30:45;0.18;87.57
69006;SHT31;56061;51.748;19.620;2023-02-16T00:33:16;0.16;87.49
69006;SHT31;56061;51.748;19.620;2023-02-16T00:35:45;0.14;87.43
69006;SHT31;56061;51.748;19.620;2023-02-16T00:38:12;0.10;87.41
69006;SHT31;56061;51.748;19.620;2023-02-16T00:40:39;0.05;87.40
69006;SHT31;56061;51.748;19.620;2023-02-16T00:43:08;0.01;87.40
69006;SHT31;56061;51.748;19.620;2023-02-16T00:45:49;-0.02;87.39
69006;SHT31;56061;51.748;19.620;2023-02-16T00:48:16;-0.06;87.35
69006;SHT31;56061;51.748;19.620;2023-02-16T00:50:42;-0.07;87.38
69006;SHT31;56061;51.748;19.620;2023-02-16T00:53:09;-0.06;87.41
69006;SHT31;56061;51.748;19.620;2023-02-16T00:55:36;-0.05;87.46
69006;SHT31;56061;51.748;19.620;2023-02-16T00:58:16;-0.03;87.50
69006;SHT31;56061;51.748;19.620;2023-02-16T01:00:56;-0.04;87.40
69006;SHT31;56061;51.748;19.620;2023-02-16T01:03:31;-0.05;87.40
69006;SHT31;56061;51.748;19.620;2023-02-16T01:05:58;-0.06;87.40
69006;SHT31;56061;51.748;19.620;2023-02-16T01:08:43;-0.07;87.45
69006;SHT31;56061;51.748;19.620;2023-02-16T01:11:28;-0.10;87.34
69006;SHT31;56061;51.748;19.620;2023-02-16T01:13:55;-0.13;87.25
69006;SHT31;56061;51.748;19.620;2023-02-16T01:16:23;-0.15;87.18
69006;SHT31;56061;51.748;19.620;2023-02-16T01:18:58;-0.16;87.12
69006;SHT31;56061;51.748;19.620;2023-02-16T01:21:25;-0.16;87.11
69006;SHT31;56061;51.748;19.620;2023-02-16T01:23:51;-0.16;87.11
69006;SHT31;56061;51.748;19.620;2023-02-16T01:26:18;-0.16;87.06
69006;SHT31;56061;51.748;19.620;2023-02-16T01:28:46;-0.16;87.02
69006;SHT31;56061;51.748;19.620;2023-02-16T01:31:13;-0.18;87.10
69006;SHT31;56061;51.748;19.620;2023-02-16T01:33:40;-0.18;87.18
69006;SHT31;56061;51.748;19.620;2023-02-16T01:36:19;-0.20;87.21
69006;SHT31;56061;51.748;19.620;2023-02-16T01:38:59;-0.24;87.29
69006;SHT31;56061;51.748;19.620;2023-02-16T01:50:16;-0.33;87.50
69006;SHT31;56061;51.748;19.620;2023-02-16T07:28:40;0.69;86.71
69006;SHT31;56061;51.748;19.620;2023-02-16T07:31:11;0.76;86.70
69006;SHT31;56061;51.748;19.620;2023-02-16T07:33:43;0.83;86.64
69006;SHT31;56061;51.748;19.620;2023-02-16T07:36:10;0.90;86.50
69006;SHT31;56061;51.748;19.620;2023-02-16T07:38:38;0.98;86.41
69006;SHT31;56061;51.748;19.620;2023-02-16T07:41:08;1.07;86.36
69006;SHT31;56061;51.748;19.620;2023-02-16T07:43:37;1.18;86.29
69006;SHT31;56061;51.748;19.620;2023-02-16T07:46:04;1.29;86.26
69006;SHT31;56061;51.748;19.620;2023-02-16T07:48:31;1.38;86.13
69006;SHT31;56061;51.748;19.620;2023-02-16T07:50:57;1.45;85.98
69006;SHT31;56061;51.748;19.620;2023-02-16T07:53:24;1.52;85.91
69006;SHT31;56061;51.748;19.620;2023-02-16T07:55:51;1.60;85.81
69006;SHT31;56061;51.748;19.620;2023-02-16T07:58:17;1.66;85.72
69006;SHT31;56061;51.748;19.620;2023-02-16T08:01:04;1.74;85.69
69006;SHT31;56061;51.748;19.620;2023-02-16T08:03:34;1.81;85.62
69006;SHT31;56061;51.748;19.620;2023-02-16T08:06:01;1.87;85.54
69006;SHT31;56061;51.748;19.620;2023-02-16T08:08:29;1.96;85.46
69006;SHT31;56061;51.748;19.620;2023-02-16T08:10:57;2.06;85.37
69006;SHT31;56061;51.748;19.620;2023-02-16T08:13:23;2.17;85.23
69006;SHT31;56061;51.748;19.620;2023-02-16T08:15:50;2.28;85.15
69006;SHT31;56061;51.748;19.620;2023-02-16T08:18:16;2.37;84.95
69006;SHT31;56061;51.748;19.620;2023-02-16T08:20:43;2.44;84.73
69006;SHT31;56061;51.748;19.620;2023-02-16T08:23:28;2.50;84.47
69006;SHT31;56061;51.748;19.620;2023-02-16T08:25:55;2.56;84.28
69006;SHT31;56061;51.748;19.620;2023-02-16T08:28:24;2.61;84.17
69006;SHT31;56061;51.748;19.620;2023-02-16T08:30:54;2.66;84.08
69006;SHT31;56061;51.748;19.620;2023-02-16T08:33:21;2.70;83.82
69006;SHT31;56061;51.748;19.620;2023-02-16T08:35:48;2.75;83.76
69006;SHT31;56061;51.748;19.620;2023-02-16T08:38:14;2.82;83.63
69006;SHT31;56061;51.748;19.620;2023-02-16T08:40:46;2.89;83.39
69006;SHT31;56061;51.748;19.620;2023-02-16T08:43:14;2.98;83.19
69006;SHT31;56061;51.748;19.620;2023-02-16T08:45:44;3.06;82.98
69006;SHT31;56061;51.748;19.620;2023-02-16T08:48:12;3.10;82.78
69006;SHT31;56061;51.748;19.620;2023-02-16T08:50:43;3.13;82.62
69006;SHT31;56061;51.748;19.620;2023-02-16T08:53:13;3.17;82.49
69006;SHT31;56061;51.748;19.620;2023-02-16T08:55:40;3.21;82.25
69006;SHT31;56061;51.748;19.620;2023-02-16T08:58:07;3.23;82.23
69006;SHT31;56061;51.748;19.620;2023-02-16T09:00:33;3.27;82.20
69006;SHT31;56061;51.748;19.620;2023-02-16T09:03:00;3.33;82.18
69006;SHT31;56061;51.748;19.620;2023-02-16T09:05:27;3.41;81.94
69006;SHT31;56061;51.748;19.620;2023-02-16T09:07:53;3.47;81.73
69006;SHT31;56061;51.748;19.620;2023-02-16T09:10:20;3.56;81.74
69006;SHT31;56061;51.748;19.620;2023-02-16T09:12:48;3.61;81.53
69006;SHT31;56061;51.748;19.620;2023-02-16T09:15:15;3.64;81.25
69006;SHT31;56061;51.748;19.620;2023-02-16T09:17:42;3.65;80.90
69006;SHT31;56061;51.748;19.620;2023-02-16T09:20:09;3.66;80.73
69006;SHT31;56061;51.748;19.620;2023-02-16T09:22:36;3.67;80.64
69006;SHT31;56061;51.748;19.620;2023-02-16T09:25:03;3.70;80.72
69006;SHT31;56061;51.748;19.620;2023-02-16T09:27:33;3.76;80.77
69006;SHT31;56061;51.748;19.620;2023-02-16T09:29:59;3.83;80.44
69006;SHT31;56061;51.748;19.620;2023-02-16T09:32:27;3.86;80.33
69006;SHT31;56061;51.748;19.620;2023-02-16T09:34:55;3.90;80.16
69006;SHT31;56061;51.748;19.620;2023-02-16T09:37:21;3.93;80.04
69006;SHT31;56061;51.748;19.620;2023-02-16T09:39:49;3.97;79.83
69006;SHT31;56061;51.748;19.620;2023-02-16T09:45:14;4.02;79.37
69006;SHT31;56061;51.748;19.620;2023-02-16T09:47:46;4.09;79.45
69006;SHT31;56061;51.748;19.620;2023-02-16T09:50:18;4.18;79.48
69006;SHT31;56061;51.748;19.620;2023-02-16T09:53:12;4.30;79.71
69006;SHT31;56061;51.748;19.620;2023-02-16T09:56:12;4.42;79.63
69006;SHT31;56061;51.748;19.620;2023-02-16T09:59:22;4.54;79.18
69006;SHT31;56061;51.748;19.620;2023-02-16T10:02:03;4.62;78.79
69006;SHT31;56061;51.748;19.620;2023-02-16T10:05:18;4.68;78.59
69006;SHT31;56061;51.748;19.620;2023-02-16T10:07:56;4.72;78.38
69006;SHT31;56061;51.748;19.620;2023-02-16T10:10:34;4.77;78.40
69006;SHT31;56061;51.748;19.620;2023-02-16T10:13:35;4.83;78.31
69006;SHT31;56061;51.748;19.620;2023-02-16T10:16:14;4.93;78.37
69006;SHT31;56061;51.748;19.620;2023-02-16T10:18:52;5.02;77.95
69006;SHT31;56061;51.748;19.620;2023-02-16T10:21:23;5.08;77.78
69006;SHT31;56061;51.748;19.620;2023-02-16T10:23:59;5.11;77.43
69006;SHT31;56061;51.748;19.620;2023-02-16T10:26:31;5.16;77.55
69006;SHT31;56061;51.748;19.620;2023-02-16T10:29:10;5.21;77.33
69006;SHT31;56061;51.748;19.620;2023-02-16T10:31:58;5.26;77.19
69006;SHT31;56061;51.748;19.620;2023-02-16T10:34:55;5.30;76.86
69006;SHT31;56061;51.748;19.620;2023-02-16T10:43:35;5.62;76.93
69006;SHT31;56061;51.748;19.620;2023-02-16T10:46:09;5.69;76.73
69006;SHT31;56061;51.748;19.620;2023-02-16T10:48:46;5.74;76.53
69006;SHT31;56061;51.748;19.620;2023-02-16T10:51:18;5.77;76.39
69006;SHT31;56061;51.748;19.620;2023-02-16T10:54:06;5.85;76.40
69006;SHT31;56061;51.748;19.620;2023-02-16T10:56:42;5.93;76.24
69006;SHT31;56061;51.748;19.620;2023-02-16T10:59:21;5.97;75.53
69006;SHT31;56061;51.748;19.620;2023-02-16T11:01:56;5.99;75.38
69006;SHT31;56061;51.748;19.620;2023-02-16T11:04:39;6.03;75.81
69006;SHT31;56061;51.748;19.620;2023-02-16T11:07:13;6.10;75.71
69006;SHT31;56061;51.748;19.620;2023-02-16T11:09:44;6.18;75.83
69006;SHT31;56061;51.748;19.620;2023-02-16T11:14:50;6.28;75.45
69006;SHT31;56061;51.748;19.620;2023-02-16T11:17:29;6.32;75.29
69006;SHT31;56061;51.748;19.620;2023-02-16T11:20:23;6.38;75.39
69006;SHT31;56061;51.748;19.620;2023-02-16T11:25:59;6.50;75.09
69006;SHT31;56061;51.748;19.620;2023-02-16T11:28:36;6.57;74.96
69006;SHT31;56061;51.748;19.620;2023-02-16T11:34:02;6.79;74.74
69006;SHT31;56061;51.748;19.620;2023-02-16T11:36:41;6.90;74.38
69006;SHT31;56061;51.748;19.620;2023-02-16T11:39:19;6.98;74.20
69006;SHT31;56061;51.748;19.620;2023-02-16T11:41:48;7.05;74.15
69006;SHT31;56061;51.748;19.620;2023-02-16T11:47:21;7.21;73.88
69006;SHT31;56061;51.748;19.620;2023-02-16T11:52:38;7.35;73.27
69006;SHT31;56061;51.748;19.620;2023-02-16T11:55:12;7.38;73.20
69006;SHT31;56061;51.748;19.620;2023-02-16T11:57:46;7.44;73.28
69006;SHT31;56061;51.748;19.620;2023-02-16T12:00:16;7.47;73.10
69006;SHT31;56061;51.748;19.620;2023-02-16T12:09:15;7.50;72.27
69006;SHT31;56061;51.748;19.620;2023-02-16T12:15:01;7.46;72.10
69006;SHT31;56061;51.748;19.620;2023-02-16T12:18:08;7.46;72.43
69006;SHT31;56061;51.748;19.620;2023-02-16T12:21:37;7.46;72.11
69006;SHT31;56061;51.748;19.620;2023-02-16T12:27:14;7.50;72.44
69006;SHT31;56061;51.748;19.620;2023-02-16T12:30:00;7.53;72.17
69006;SHT31;56061;51.748;19.620;2023-02-16T12:44:47;7.57;72.12
69006;SHT31;56061;51.748;19.620;2023-02-16T12:47:18;7.60;72.23
69006;SHT31;56061;51.748;19.620;2023-02-16T12:50:00;7.63;72.12
69006;SHT31;56061;51.748;19.620;2023-02-16T12:55:24;7.58;71.70
69006;SHT31;56061;51.748;19.620;2023-02-16T12:58:07;7.55;71.85
69006;SHT31;56061;51.748;19.620;2023-02-16T13:00:45;7.53;71.85
69006;SHT31;56061;51.748;19.620;2023-02-16T13:03:21;7.54;72.03
69006;SHT31;56061;51.748;19.620;2023-02-16T13:08:43;7.63;71.78
69006;SHT31;56061;51.748;19.620;2023-02-16T13:11:49;7.70;71.89
69006;SHT31;56061;51.748;19.620;2023-02-16T13:14:24;7.74;71.58
69006;SHT31;56061;51.748;19.620;2023-02-16T13:17:01;7.76;71.49
69006;SHT31;56061;51.748;19.620;2023-02-16T13:19:41;7.76;71.44
69006;SHT31;56061;51.748;19.620;2023-02-16T13:31:45;7.75;71.36
69006;SHT31;56061;51.748;19.620;2023-02-16T13:37:40;7.73;71.42
69006;SHT31;56061;51.748;19.620;2023-02-16T13:44:14;7.80;71.70
69006;SHT31;56061;51.748;19.620;2023-02-16T13:46:47;7.85;71.68
69006;SHT31;56061;51.748;19.620;2023-02-16T13:52:05;7.97;71.58
69006;SHT31;56061;51.748;19.620;2023-02-16T13:54:39;8.03;71.23
69006;SHT31;56061;51.748;19.620;2023-02-16T13:57:13;8.04;70.92
69006;SHT31;56061;51.748;19.620;2023-02-16T14:00:01;8.04;70.96
69006;SHT31;56061;51.748;19.620;2023-02-16T14:03:32;8.02;70.86
69006;SHT31;56061;51.748;19.620;2023-02-16T14:05:28;8.01;71.12
69006;SHT31;56061;51.748;19.620;2023-02-16T14:08:09;7.98;70.94
69006;SHT31;56061;51.748;19.620;2023-02-16T14:13:16;7.90;71.47
69006;SHT31;56061;51.748;19.620;2023-02-16T14:15:49;7.87;71.02
69006;SHT31;56061;51.748;19.620;2023-02-16T14:18:29;7.86;71.25
69006;SHT31;56061;51.748;19.620;2023-02-16T14:21:15;7.86;71.42
69006;SHT31;56061;51.748;19.620;2023-02-16T14:23:56;7.90;71.33
69006;SHT31;56061;51.748;19.620;2023-02-16T14:26:25;7.95;71.59
69006;SHT31;56061;51.748;19.620;2023-02-16T14:31:52;8.00;71.49
69006;SHT31;56061;51.748;19.620;2023-02-16T14:34:35;8.01;71.53
69006;SHT31;56061;51.748;19.620;2023-02-16T14:39:45;8.01;71.51
69006;SHT31;56061;51.748;19.620;2023-02-16T14:42:33;7.96;71.38
69006;SHT31;56061;51.748;19.620;2023-02-16T14:48:12;7.82;70.82
69006;SHT31;56061;51.748;19.620;2023-02-16T14:57:00;7.63;71.14
69006;SHT31;56061;51.748;19.620;2023-02-16T14:59:47;7.58;71.27
69006;SHT31;56061;51.748;19.620;2023-02-16T15:07:45;7.44;71.68
69006;SHT31;56061;51.748;19.620;2023-02-16T15:10:24;7.41;71.72
69006;SHT31;56061;51.748;19.620;2023-02-16T15:12:55;7.35;71.88
69006;SHT31;56061;51.748;19.620;2023-02-16T15:15:57;7.33;71.90
69006;SHT31;56061;51.748;19.620;2023-02-16T15:18:22;7.24;71.90
69006;SHT31;56061;51.748;19.620;2023-02-16T15:20:56;7.16;71.99
69006;SHT31;56061;51.748;19.620;2023-02-16T15:23:25;7.10;72.19
69006;SHT31;56061;51.748;19.620;2023-02-16T15:26:07;7.03;72.29
69006;SHT31;56061;51.748;19.620;2023-02-16T15:28:51;6.96;72.41
69006;SHT31;56061;51.748;19.620;2023-02-16T15:31:30;6.89;72.54
69006;SHT31;56061;51.748;19.620;2023-02-16T15:34:01;6.83;72.64
69006;SHT31;56061;51.748;19.620;2023-02-16T15:36:36;6.76;72.82
69006;SHT31;56061;51.748;19.620;2023-02-16T15:39:11;6.70;72.97
69006;SHT31;56061;51.748;19.620;2023-02-16T15:41:44;6.65;73.10
69006;SHT31;56061;51.748;19.620;2023-02-16T15:44:28;6.57;73.21
69006;SHT31;56061;51.748;19.620;2023-02-16T15:47:06;6.51;73.37
69006;SHT31;56061;51.748;19.620;2023-02-16T15:49:35;6.47;73.52
69006;SHT31;56061;51.748;19.620;2023-02-16T15:52:11;6.45;73.62
69006;SHT31;56061;51.748;19.620;2023-02-16T15:54:48;6.42;73.75
69006;SHT31;56061;51.748;19.620;2023-02-16T15:57:32;6.38;73.83
69006;SHT31;56061;51.748;19.620;2023-02-16T16:02:41;6.27;74.06
69006;SHT31;56061;51.748;19.620;2023-02-16T16:07:57;6.13;74.32
69006;SHT31;56061;51.748;19.620;2023-02-16T16:10:32;6.05;74.46
69006;SHT31;56061;51.748;19.620;2023-02-16T16:13:05;5.97;74.65
69006;SHT31;56061;51.748;19.620;2023-02-16T16:15:41;5.90;74.81
69006;SHT31;56061;51.748;19.620;2023-02-16T16:18:34;5.80;74.98
69006;SHT31;56061;51.748;19.620;2023-02-16T16:21:11;5.72;75.12
69006;SHT31;56061;51.748;19.620;2023-02-16T16:23:51;5.63;75.32
69006;SHT31;56061;51.748;19.620;2023-02-16T16:26:32;5.56;75.46
69006;SHT31;56061;51.748;19.620;2023-02-16T16:32:19;5.47;75.80
69006;SHT31;56061;51.748;19.620;2023-02-16T16:34:52;5.43;75.96
69006;SHT31;56061;51.748;19.620;2023-02-16T16:40:33;5.32;76.21
69006;SHT31;56061;51.748;19.620;2023-02-16T16:45:36;5.16;76.46
69006;SHT31;56061;51.748;19.620;2023-02-16T16:48:16;5.08;76.61
69006;SHT31;56061;51.748;19.620;2023-02-16T16:50:52;5.00;76.70
69006;SHT31;56061;51.748;19.620;2023-02-16T16:53:38;4.88;76.84
69006;SHT31;56061;51.748;19.620;2023-02-16T16:56:23;4.80;76.99
69006;SHT31;56061;51.748;19.620;2023-02-16T16:58:50;4.71;77.21
69006;SHT31;56061;51.748;19.620;2023-02-16T17:01:19;4.65;77.38
69006;SHT31;56061;51.748;19.620;2023-02-16T17:03:46;4.60;77.46
69006;SHT31;56061;51.748;19.620;2023-02-16T17:06:13;4.57;77.57
69006;SHT31;56061;51.748;19.620;2023-02-16T17:08:42;4.56;77.64
69006;SHT31;56061;51.748;19.620;2023-02-16T17:11:12;4.53;77.74
69006;SHT31;56061;51.748;19.620;2023-02-16T17:13:50;4.49;77.84
69006;SHT31;56061;51.748;19.620;2023-02-16T17:16:25;4.44;77.98
69006;SHT31;56061;51.748;19.620;2023-02-16T17:18:56;4.39;78.13
69006;SHT31;56061;51.748;19.620;2023-02-16T17:21:23;4.35;78.25
69006;SHT31;56061;51.748;19.620;2023-02-16T17:23:49;4.29;78.35
69006;SHT31;56061;51.748;19.620;2023-02-16T17:26:19;4.24;78.42
69006;SHT31;56061;51.748;19.620;2023-02-16T17:28:47;4.18;78.53
69006;SHT31;56061;51.748;19.620;2023-02-16T17:31:14;4.14;78.63
69006;SHT31;56061;51.748;19.620;2023-02-16T17:33:41;4.11;78.71
69006;SHT31;56061;51.748;19.620;2023-02-16T17:36:10;4.09;78.75
69006;SHT31;56061;51.748;19.620;2023-02-16T17:38:40;4.08;78.82
69006;SHT31;56061;51.748;19.620;2023-02-16T17:41:12;4.06;78.91
69006;SHT31;56061;51.748;19.620;2023-02-16T17:43:51;4.04;78.98
69006;SHT31;56061;51.748;19.620;2023-02-16T17:46:18;4.00;79.03
69006;SHT31;56061;51.748;19.620;2023-02-16T17:48:48;3.96;79.16
69006;SHT31;56061;51.748;19.620;2023-02-16T17:51:19;3.92;79.29
69006;SHT31;56061;51.748;19.620;2023-02-16T17:53:49;3.88;79.42
69006;SHT31;56061;51.748;19.620;2023-02-16T17:56:18;3.83;79.53
69006;SHT31;56061;51.748;19.620;2023-02-16T17:58:48;3.78;79.66
69006;SHT31;56061;51.748;19.620;2023-02-16T18:01:15;3.76;79.77
69006;SHT31;56061;51.748;19.620;2023-02-16T18:03:43;3.75;79.91
69006;SHT31;56061;51.748;19.620;2023-02-16T18:06:13;3.75;80.03
69006;SHT31;56061;51.748;19.620;2023-02-16T18:08:43;3.78;80.15
69006;SHT31;56061;51.748;19.620;2023-02-16T18:11:10;3.80;80.15
69006;SHT31;56061;51.748;19.620;2023-02-16T18:13:37;3.82;80.26
69006;SHT31;56061;51.748;19.620;2023-02-16T18:16:05;3.83;80.48
69006;SHT31;56061;51.748;19.620;2023-02-16T18:18:33;3.83;80.49
69006;SHT31;56061;51.748;19.620;2023-02-16T18:21:04;3.82;80.51
69006;SHT31;56061;51.748;19.620;2023-02-16T18:23:31;3.82;80.52
69006;SHT31;56061;51.748;19.620;2023-02-16T18:25:58;3.78;80.63
69006;SHT31;56061;51.748;19.620;2023-02-16T18:28:25;3.77;80.69
69006;SHT31;56061;51.748;19.620;2023-02-16T18:30:56;3.77;80.70
69006;SHT31;56061;51.748;19.620;2023-02-16T18:33:23;3.78;80.79
69006;SHT31;56061;51.748;19.620;2023-02-16T18:35:51;3.79;80.79
69006;SHT31;56061;51.748;19.620;2023-02-16T18:38:22;3.82;80.77
69006;SHT31;56061;51.748;19.620;2023-02-16T18:40:50;3.85;80.81
69006;SHT31;56061;51.748;19.620;2023-02-16T18:43:19;3.87;80.86
69006;SHT31;56061;51.748;19.620;2023-02-16T18:45:46;3.88;80.82
69006;SHT31;56061;51.748;19.620;2023-02-16T18:48:13;3.87;80.80
69006;SHT31;56061;51.748;19.620;2023-02-16T18:50:40;3.85;80.87
69006;SHT31;56061;51.748;19.620;2023-02-16T18:53:06;3.83;80.88
69006;SHT31;56061;51.748;19.620;2023-02-16T18:55:32;3.81;80.89
69006;SHT31;56061;51.748;19.620;2023-02-16T18:58:03;3.77;80.90
69006;SHT31;56061;51.748;19.620;2023-02-16T19:00:33;3.75;80.90
69006;SHT31;56061;51.748;19.620;2023-02-16T19:03:02;3.76;80.94
69006;SHT31;56061;51.748;19.620;2023-02-16T19:05:29;3.76;80.97
69006;SHT31;56061;51.748;19.620;2023-02-16T19:07:57;3.76;80.94
69006;SHT31;56061;51.748;19.620;2023-02-16T19:10:23;3.74;80.98
69006;SHT31;56061;51.748;19.620;2023-02-16T19:12:50;3.73;81.00
69006;SHT31;56061;51.748;19.620;2023-02-16T19:15:17;3.70;81.09
69006;SHT31;56061;51.748;19.620;2023-02-16T19:17:43;3.68;81.08
69006;SHT31;56061;51.748;19.620;2023-02-16T19:20:10;3.63;81.12
69006;SHT31;56061;51.748;19.620;2023-02-16T19:22:39;3.60;81.19
69006;SHT31;56061;51.748;19.620;2023-02-16T19:25:06;3.55;81.22
69006;SHT31;56061;51.748;19.620;2023-02-16T19:27:33;3.52;81.30
69006;SHT31;56061;51.748;19.620;2023-02-16T19:29:59;3.50;81.29
69006;SHT31;56061;51.748;19.620;2023-02-16T19:32:26;3.49;81.33
69006;SHT31;56061;51.748;19.620;2023-02-16T19:34:53;3.48;81.39
69006;SHT31;56061;51.748;19.620;2023-02-16T19:37:19;3.48;81.45
69006;SHT31;56061;51.748;19.620;2023-02-16T19:39:46;3.48;81.48
69006;SHT31;56061;51.748;19.620;2023-02-16T19:42:13;3.45;81.51
69006;SHT31;56061;51.748;19.620;2023-02-16T19:44:40;3.44;81.57
69006;SHT31;56061;51.748;19.620;2023-02-16T19:47:07;3.42;81.59
69006;SHT31;56061;51.748;19.620;2023-02-16T19:49:33;3.40;81.70
69006;SHT31;56061;51.748;19.620;2023-02-16T19:52:01;3.37;81.70
69006;SHT31;56061;51.748;19.620;2023-02-16T19:54:30;3.34;81.76
69006;SHT31;56061;51.748;19.620;2023-02-16T19:57:00;3.33;81.80
69006;SHT31;56061;51.748;19.620;2023-02-16T19:59:29;3.31;81.80
69006;SHT31;56061;51.748;19.620;2023-02-16T20:01:57;3.31;81.78
69006;SHT31;56061;51.748;19.620;2023-02-16T20:04:24;3.33;81.90
69006;SHT31;56061;51.748;19.620;2023-02-16T20:06:51;3.34;81.89
69006;SHT31;56061;51.748;19.620;2023-02-16T20:09:20;3.35;81.90
69006;SHT31;56061;51.748;19.620;2023-02-16T20:11:48;3.34;81.93
69006;SHT31;56061;51.748;19.620;2023-02-16T20:14:16;3.32;81.95
69006;SHT31;56061;51.748;19.620;2023-02-16T20:16:42;3.30;81.98
69006;SHT31;56061;51.748;19.620;2023-02-16T20:19:09;3.26;81.99
69006;SHT31;56061;51.748;19.620;2023-02-16T20:21:36;3.24;82.03
69006;SHT31;56061;51.748;19.620;2023-02-16T20:24:03;3.20;82.12
69006;SHT31;56061;51.748;19.620;2023-02-16T20:26:32;3.18;82.24
69006;SHT31;56061;51.748;19.620;2023-02-16T20:29:03;3.17;82.29
69006;SHT31;56061;51.748;19.620;2023-02-16T20:31:33;3.17;82.21
69006;SHT31;56061;51.748;19.620;2023-02-16T20:34:08;3.17;82.24
69006;SHT31;56061;51.748;19.620;2023-02-16T20:36:35;3.18;82.23
69006;SHT31;56061;51.748;19.620;2023-02-16T20:39:03;3.19;82.20
69006;SHT31;56061;51.748;19.620;2023-02-16T20:41:31;3.19;82.22
69006;SHT31;56061;51.748;19.620;2023-02-16T20:43:58;3.19;82.25
69006;SHT31;56061;51.748;19.620;2023-02-16T20:46:25;3.17;82.21
69006;SHT31;56061;51.748;19.620;2023-02-16T20:48:52;3.14;82.24
69006;SHT31;56061;51.748;19.620;2023-02-16T20:51:19;3.11;82.32
69006;SHT31;56061;51.748;19.620;2023-02-16T20:53:47;3.08;82.35
69006;SHT31;56061;51.748;19.620;2023-02-16T20:56:23;3.04;82.39
69006;SHT31;56061;51.748;19.620;2023-02-16T20:58:52;3.01;82.44
69006;SHT31;56061;51.748;19.620;2023-02-16T21:01:23;3.01;82.47
69006;SHT31;56061;51.748;19.620;2023-02-16T21:04:03;3.01;82.50
69006;SHT31;56061;51.748;19.620;2023-02-16T21:06:33;3.01;82.49
69006;SHT31;56061;51.748;19.620;2023-02-16T21:09:01;3.02;82.50
69006;SHT31;56061;51.748;19.620;2023-02-16T21:11:30;3.02;82.48
69006;SHT31;56061;51.748;19.620;2023-02-16T21:13:57;3.02;82.51
69006;SHT31;56061;51.748;19.620;2023-02-16T21:16:24;3.00;82.57
69006;SHT31;56061;51.748;19.620;2023-02-16T21:18:51;2.99;82.60
69006;SHT31;56061;51.748;19.620;2023-02-16T21:21:18;2.97;82.61
69006;SHT31;56061;51.748;19.620;2023-02-16T21:23:46;2.94;82.61
69006;SHT31;56061;51.748;19.620;2023-02-16T21:26:16;2.91;82.62
69006;SHT31;56061;51.748;19.620;2023-02-16T21:28:45;2.89;82.64
69006;SHT31;56061;51.748;19.620;2023-02-16T21:31:14;2.88;82.67
69006;SHT31;56061;51.748;19.620;2023-02-16T21:33:44;2.89;82.70
69006;SHT31;56061;51.748;19.620;2023-02-16T21:36:15;2.90;82.73
69006;SHT31;56061;51.748;19.620;2023-02-16T21:38:45;2.92;82.74
69006;SHT31;56061;51.748;19.620;2023-02-16T21:41:16;2.93;82.80
69006;SHT31;56061;51.748;19.620;2023-02-16T21:46:44;2.92;82.91
69006;SHT31;56061;51.748;19.620;2023-02-16T21:49:16;2.91;82.98
69006;SHT31;56061;51.748;19.620;2023-02-16T21:51:45;2.92;83.05
69006;SHT31;56061;51.748;19.620;2023-02-16T21:54:15;2.92;83.04
69006;SHT31;56061;51.748;19.620;2023-02-16T21:57:04;2.92;83.09
69006;SHT31;56061;51.748;19.620;2023-02-16T21:59:30;2.93;83.12
69006;SHT31;56061;51.748;19.620;2023-02-16T22:01:57;2.95;83.17
69006;SHT31;56061;51.748;19.620;2023-02-16T22:04:23;2.98;83.13
69006;SHT31;56061;51.748;19.620;2023-02-16T22:06:50;3.00;83.17
69006;SHT31;56061;51.748;19.620;2023-02-16T22:09:18;3.05;83.17
69006;SHT31;56061;51.748;19.620;2023-02-16T22:11:47;3.08;83.17
69006;SHT31;56061;51.748;19.620;2023-02-16T22:14:15;3.10;83.19
69006;SHT31;56061;51.748;19.620;2023-02-16T22:16:42;3.13;83.16
69006;SHT31;56061;51.748;19.620;2023-02-16T22:19:12;3.15;83.17
69006;SHT31;56061;51.748;19.620;2023-02-16T22:21:42;3.17;83.16
69006;SHT31;56061;51.748;19.620;2023-02-16T22:24:12;3.19;83.12
69006;SHT31;56061;51.748;19.620;2023-02-16T22:26:42;3.22;83.06
69006;SHT31;56061;51.748;19.620;2023-02-16T22:29:10;3.26;83.03
69006;SHT31;56061;51.748;19.620;2023-02-16T22:31:37;3.29;83.00
69006;SHT31;56061;51.748;19.620;2023-02-16T22:34:11;3.35;82.95
69006;SHT31;56061;51.748;19.620;2023-02-16T22:36:43;3.38;82.90
69006;SHT31;56061;51.748;19.620;2023-02-16T22:39:11;3.42;82.83
69006;SHT31;56061;51.748;19.620;2023-02-16T22:41:39;3.45;82.78
69006;SHT31;56061;51.748;19.620;2023-02-16T22:44:05;3.47;82.70
69006;SHT31;56061;51.748;19.620;2023-02-16T22:46:32;3.47;82.69
69006;SHT31;56061;51.748;19.620;2023-02-16T22:49:00;3.48;82.68
69006;SHT31;56061;51.748;19.620;2023-02-16T22:51:27;3.47;82.65
69006;SHT31;56061;51.748;19.620;2023-02-16T22:53:59;3.46;82.62
69006;SHT31;56061;51.748;19.620;2023-02-16T22:56:27;3.44;82.62
69006;SHT31;56061;51.748;19.620;2023-02-16T22:58:55;3.44;82.60
69006;SHT31;56061;51.748;19.620;2023-02-16T23:01:23;3.46;82.60
69006;SHT31;56061;51.748;19.620;2023-02-16T23:03:54;3.48;82.60
69006;SHT31;56061;51.748;19.620;2023-02-16T23:06:27;3.50;82.54
69006;SHT31;56061;51.748;19.620;2023-02-16T23:08:59;3.51;82.56
69006;SHT31;56061;51.748;19.620;2023-02-16T23:11:30;3.54;82.55
69006;SHT31;56061;51.748;19.620;2023-02-16T23:13:56;3.55;82.48
69006;SHT31;56061;51.748;19.620;2023-02-16T23:16:23;3.55;82.40
69006;SHT31;56061;51.748;19.620;2023-02-16T23:18:56;3.53;82.40
69006;SHT31;56061;51.748;19.620;2023-02-16T23:21:28;3.53;82.40
69006;SHT31;56061;51.748;19.620;2023-02-16T23:23:57;3.50;82.40
69006;SHT31;56061;51.748;19.620;2023-02-16T23:26:25;3.46;82.40
69006;SHT31;56061;51.748;19.620;2023-02-16T23:28:56;3.45;82.42
69006;SHT31;56061;51.748;19.620;2023-02-16T23:31:25;3.44;82.45
69006;SHT31;56061;51.748;19.620;2023-02-16T23:33:55;3.43;82.46
69006;SHT31;56061;51.748;19.620;2023-02-16T23:36:22;3.46;82.48
69006;SHT31;56061;51.748;19.620;2023-02-16T23:38:48;3.48;82.44
69006;SHT31;56061;51.748;19.620;2023-02-16T23:41:15;3.47;82.40